CDT,Max TemperatureF,Mean TemperatureF,Min TemperatureF,Max Dew PointF,MeanDew PointF,Min DewpointF,Max Humidity, Mean Humidity, Min Humidity, Max Sea Level PressureIn, Mean Sea Level PressureIn, Min Sea Level PressureIn, Max VisibilityMiles, Mean VisibilityMiles, Min VisibilityMiles, Max Wind SpeedMPH, Mean Wind SpeedMPH, Max Gust SpeedMPH,PrecipitationIn, CloudCover, Events, WindDirDegrees
2013-4-1,56,46,36,46,34,26,86,62,38,30.20,30.09,29.91,10,10,9,16,8,20,0.00,1,,356
2013-4-2,47,41,34,28,23,16,70,49,28,30.32,30.27,30.22,10,10,10,12,4,15,0.00,3,,10
2013-4-3,53,41,29,26,22,19,70,49,28,30.36,30.28,30.20,10,10,10,18,9,25,0.00,0,,64
2013-4-4,57,47,36,39,28,22,92,64,35,30.19,30.08,30.01,10,10,10,10,4,14,T,4,Rain,66
2013-4-5,71,51,31,39,34,30,92,59,25,30.14,30.09,30.04,10,9,4,14,4,20,0.00,0,,283
2013-4-6,73,57,41,41,38,36,82,56,29,30.09,30.00,29.87,10,10,7,18,8,29,0.00,0,,188
2013-4-7,71,65,59,55,49,40,75,59,43,29.98,29.93,29.90,10,10,10,16,8,23,0.00,5,,198
2013-4-8,75,66,56,57,54,49,86,68,49,29.93,29.89,29.85,10,10,10,21,9,29,0.00,5,,192
2013-4-9,80,69,58,63,60,53,86,71,56,30.01,29.93,29.86,10,10,10,21,10,29,0.00,3,,171
2013-4-10,83,74,64,65,63,59,93,72,51,29.92,29.82,29.68,10,10,3,20,9,29,0.68,3,Rain-Thunderstorm,189
2013-4-11,67,55,43,64,55,35,100,85,70,29.78,29.70,29.63,10,7,1,28,10,36,0.90,7,Rain-Thunderstorm,248
2013-4-12,60,49,37,39,35,32,85,61,37,30.05,29.87,29.78,10,10,10,26,11,35,0.00,2,,263
2013-4-13,66,50,34,43,36,31,89,64,39,30.11,30.03,29.95,10,10,10,12,4,15,0.00,0,,168
2013-4-14,74,60,45,51,45,40,82,59,35,29.94,29.84,29.76,10,10,10,26,10,36,0.00,0,,151
2013-4-15,79,68,57,61,56,50,80,64,48,29.93,29.87,29.82,10,10,10,17,8,24,0.00,4,,177
2013-4-16,83,73,63,69,65,58,93,78,62,30.05,30.00,29.89,10,8,2,20,8,26,T,5,Rain-Thunderstorm,174
2013-4-17,82,71,59,70,64,57,97,79,60,30.08,29.99,29.82,10,8,2,22,7,30,0.06,2,Rain-Thunderstorm,177
2013-4-18,78,61,44,65,58,43,100,77,54,29.81,29.70,29.62,10,6,1,25,12,39,2.27,6,Rain,252
2013-4-19,50,43,35,39,33,29,92,71,50,30.10,29.93,29.77,10,10,10,21,11,29,0.00,6,,266
2013-4-20,62,47,32,40,33,30,100,66,32,30.32,30.23,30.11,10,10,10,12,4,15,0.00,0,,6
2013-4-21,65,52,39,37,33,31,76,52,28,30.41,30.33,30.26,10,10,10,14,6,18,0.00,0,,80
2013-4-22,72,57,42,49,42,33,77,57,37,30.26,30.16,30.04,10,10,10,14,5,21,0.00,1,,164
2013-4-23,73,60,47,59,53,45,78,66,53,30.05,29.96,29.85,10,10,10,21,10,30,T,5,Rain,186
2013-4-24,52,44,35,48,39,34,96,73,50,30.30,30.09,29.92,10,9,2,18,7,26,0.25,7,Rain,324
2013-4-25,65,49,32,43,37,30,96,65,34,30.37,30.33,30.28,10,10,6,13,4,17,0.00,0,,219
2013-4-26,52,49,45,49,45,39,93,80,66,30.44,30.35,30.27,10,8,3,14,4,18,0.47,6,Rain,114
2013-4-27,61,56,50,58,54,48,100,97,93,30.30,30.07,29.90,10,5,2,16,5,22,0.74,8,Rain,99
2013-4-28,61,55,48,58,53,51,100,86,72,29.96,29.93,29.88,10,8,1,14,5,23,0.00,8,,260
2013-4-29,73,60,46,57,51,45,100,77,53,30.01,29.95,29.88,10,6,0,10,5,15,0.00,1,Fog,179
2013-4-30,81,66,50,58,54,50,96,69,42,29.98,29.93,29.89,10,10,9,12,5,15,0.00,0,,162